West Coxsackie, New York
Current Conditions -  °F | °C
As of 7:51 AM on Wednesday 26 Nov 2014 (Local Time) from KALB Reporting Station
Overcast Overcast  
Wind Chill: 37°   Ceiling: 13000
Heat Index: 37°   Visibility: 10mi
Dew Point: 27°   Wind: 3mph
Humidity: 67%   Direction: 350°N
Pressure: 30.24"   Gusts: NA
Location:  42.36°N, 73.82°W
Report Text: KALB 261251Z 35003KT 10SM FEW041 SCT110 OVC130 03/M03 A3024 RMK AO2 SLP241 VIRGA ALQDS SCSL ALQDS T00281028
Loading
Personal Weather Stations






























Interactive Weather Map New forecast layout! Learn more

10-Day Weather Forecast

Advertisements
Track Severe Weather on mobile